Date,TemperatureHighF,TemperatureAvgF,TemperatureLowF,DewpointHighF,DewpointAvgF,DewpointLowF,HumidityHigh,HumidityAvg,HumidityLow,PressureMaxIn,PressureMinIn,WindSpeedMaxMPH,WindSpeedAvgMPH,GustSpeedMaxMPH,PrecipitationSumIn
2013-1-2,27,24,21,17,14,12,70,65,61,30.26,30.11,4,2,13,0.00
2013-1-3,30,24,19,22,16,12,77,71,65,30.27,30.18,8,2,16,0.00
2013-1-4,33,28,26,24,21,19,80,75,67,30.21,30.10,11,7,26,0.01
2013-1-5,34,30,25,26,22,20,80,73,66,30.40,30.16,13,4,29,0.00
2013-1-6,38,35,30,30,27,24,82,73,66,30.22,30.05,5,2,13,0.08
2013-1-7,36,32,28,30,26,23,82,77,72,30.45,30.17,6,2,18,0.08
2013-1-8,44,35,29,33,28,23,85,77,63,30.44,30.37,2,0,9,0.18
2013-1-9,46,40,36,42,34,30,89,78,67,30.41,30.24,10,3,27,0.16
2013-1-10,43,38,34,32,29,27,77,70,60,30.61,30.38,8,3,28,0.00
2013-1-11,40,36,34,39,32,28,97,86,74,30.51,30.12,4,1,16,0.22
2013-1-12,56,46,37,54,45,36,100,96,85,30.19,30.11,4,0,9,0.00
2013-1-13,55,49,44,54,49,44,100,98,96,30.12,29.96,3,1,12,0.01
2013-1-14,55,45,34,55,42,32,100,90,75,30.30,29.96,9,2,23,0.25
2013-1-15,34,32,29,32,30,28,96,92,84,30.36,30.17,4,0,9,0.12
2013-1-16,37,31,28,35,30,28,97,96,88,30.17,29.88,4,0,9,0.01
2013-1-17,37,33,31,33,28,26,89,82,66,30.15,30.01,5,2,15,0.06
2013-1-18,31,26,20,26,17,10,84,68,57,30.49,30.07,8,3,27,0.00
2013-1-19,48,32,23,33,26,20,92,77,55,30.42,29.96,3,1,15,0.00
2013-1-20,47,37,26,33,24,15,79,59,35,30.08,29.83,10,5,30,0.00
2013-1-21,33,25,18,24,16,8,76,68,59,30.09,29.86,10,2,25,0.00
2013-1-22,18,10,7,8,-1,-4,72,60,49,30.32,29.95,12,6,31,0.00
2013-1-23,17,10,5,7,0,-2,81,64,49,30.38,30.18,6,2,17,0.00
2013-1-24,19,13,9,8,5,0,88,72,53,30.55,30.14,8,3,23,0.00
2013-1-25,15,12,9,11,5,0,91,75,58,30.55,30.10,4,0,14,0.00
2013-1-26,24,19,13,20,16,11,92,88,79,30.48,30.12,4,0,11,0.00
2013-1-27,29,23,16,22,17,12,89,78,67,30.62,30.48,3,0,10,0.05
2013-1-28,44,30,25,43,28,22,98,93,79,30.51,30.10,3,1,12,0.22
2013-1-29,62,54,44,56,50,43,98,87,78,30.15,29.95,4,2,13,0.02
2013-1-30,62,54,51,60,53,50,100,95,83,29.96,29.23,9,3,27,1.82
2013-1-31,52,32,22,52,25,11,99,75,61,29.86,29.15,16,8,33,0.38
2013-2-1,24,17,10,19,9,3,92,70,60,30.38,29.83,11,5,29,0.00
2013-2-2,21,15,9,20,10,3,94,80,70,30.40,30.07,6,1,19,0.00
2013-2-3,26,23,20,24,21,16,95,91,78,30.07,29.85,8,1,29,0.03
2013-2-4,28,22,16,23,15,9,90,75,65,30.11,29.93,9,3,28,0.00
2013-2-5,33,30,26,30,27,21,94,88,75,29.96,29.88,3,0,7,0.01
2013-2-6,32,29,25,29,24,18,93,82,74,30.37,29.95,7,3,19,0.00
2013-2-7,30,26,21,25,20,16,89,77,70,30.46,30.24,4,1,14,0.00
2013-2-8,34,30,26,33,28,21,97,92,80,30.24,29.81,10,3,26,0.05
2013-2-9,31,25,20,21,17,14,84,72,55,30.43,29.94,15,7,33,0.00
2013-2-10,38,29,20,23,17,10,73,61,47,30.49,30.25,3,1,13,0.00
2013-2-11,51,39,31,46,35,23,98,88,47,30.25,29.73,12,2,28,0.24
2013-2-12,46,39,31,33,29,26,80,67,56,30.00,29.82,10,5,27,0.00
2013-2-13,35,31,28,29,27,24,95,83,73,29.96,29.68,6,2,13,0.00
2013-2-14,42,33,26,32,28,23,96,81,67,30.03,29.79,6,1,15,0.16
2013-2-15,47,36,31,36,30,26,96,79,63,30.06,29.95,6,1,16,0.07
2013-2-16,31,28,22,30,24,16,96,86,70,30.01,29.87,5,1,17,0.03
2013-2-17,23,19,16,16,11,6,81,73,60,30.22,29.86,11,6,34,0.01
2013-2-18,35,24,13,21,12,5,74,60,46,30.40,30.19,9,3,27,0.00
2013-2-19,38,33,29,37,27,20,96,78,58,30.19,29.71,12,3,24,0.13
2013-2-20,29,22,18,22,14,9,79,70,64,30.17,29.83,15,7,40,0.01
2013-2-21,29,22,17,19,14,10,77,70,61,30.38,30.12,10,5,25,0.00
2013-2-22,26,24,21,25,20,15,95,85,72,30.41,30.24,7,2,16,0.00
2013-2-23,41,34,26,41,33,24,97,96,95,30.24,29.85,4,0,9,0.03
2013-2-24,41,33,25,35,28,19,97,83,62,30.12,29.82,8,4,22,0.00
2013-2-25,40,30,24,27,22,18,81,72,58,30.26,30.11,5,1,15,0.00
2013-2-26,36,32,28,35,28,22,97,87,72,30.25,29.66,10,2,33,1.51
2013-2-27,47,38,32,42,35,31,98,87,66,29.71,29.57,10,3,23,0.09
2013-2-28,38,34,31,34,29,26,89,82,72,29.74,29.64,6,3,15,0.00
2013-3-1,35,32,27,31,27,22,95,82,69,29.91,29.73,5,2,16,0.00
2013-3-2,28,25,23,22,20,19,85,80,71,29.90,29.84,6,3,16,0.00
2013-3-3,32,25,22,22,19,17,90,77,65,29.93,29.83,10,6,26,0.00
2013-3-4,33,26,20,22,17,13,79,70,59,30.07,29.92,10,7,25,0.00
2013-3-5,40,32,24,27,21,17,79,66,43,30.10,29.84,6,2,19,0.00
2013-3-6,33,31,28,32,30,26,97,96,79,30.06,29.67,7,3,29,0.14
2013-3-7,40,34,29,31,28,24,97,78,64,30.19,30.06,8,3,23,0.13
2013-3-8,40,34,28,30,27,23,90,75,64,30.33,30.16,12,5,29,0.00
2013-3-9,54,39,29,34,27,21,76,61,45,30.39,30.30,5,1,16,0.00
2013-3-10,57,48,41,33,28,24,58,46,36,30.33,30.22,3,1,14,0.00
2013-3-11,53,45,38,47,39,25,93,81,44,30.23,29.91,7,2,19,0.00
2013-3-12,52,45,34,50,41,28,97,87,74,29.93,29.75,9,5,28,1.00
2013-3-13,40,33,26,30,25,18,86,71,53,30.05,29.91,10,5,29,0.00
2013-3-14,36,29,24,20,18,15,76,63,49,30.12,30.03,12,8,31,0.00
2013-3-15,49,38,26,36,26,17,75,64,50,30.11,29.82,7,3,17,0.00
2013-3-16,44,36,31,36,33,30,96,86,67,29.94,29.67,6,2,15,0.02
2013-3-17,34,31,29,31,26,22,96,82,66,30.28,29.93,3,1,11,0.02
2013-3-18,30,28,26,29,24,19,96,84,71,30.32,29.91,5,1,16,0.00
2013-3-19,50,37,30,38,28,16,97,75,34,29.93,29.75,12,4,29,0.39
2013-3-20,45,34,27,25,19,16,80,56,37,29.97,29.79,9,5,26,0.00
2013-3-21,30,24,21,24,14,9,79,65,51,29.90,29.77,10,4,26,0.00
2013-3-22,35,27,20,22,18,12,76,67,55,30.04,29.89,8,4,22,0.00
2013-3-23,45,33,24,27,22,18,81,65,48,30.06,29.96,7,3,21,0.00
2013-3-24,35,31,26,27,22,19,87,71,63,30.02,29.66,3,0,15,0.00
2013-3-25,32,29,27,30,28,26,96,94,87,29.72,29.54,3,0,14,0.24
2013-3-26,42,34,28,32,29,27,96,83,57,30.02,29.72,7,3,19,0.17
2013-3-27,40,34,31,32,28,27,89,77,63,30.14,29.99,9,5,24,0.01
2013-3-28,41,35,32,31,29,27,89,77,62,30.25,30.09,9,3,23,0.00
2013-3-29,49,40,33,34,30,26,83,68,49,30.27,30.17,6,2,21,0.00
2013-3-30,52,43,35,31,28,24,75,56,39,30.24,30.13,4,1,14,0.00
2013-3-31,44,42,39,43,36,26,97,81,49,30.13,29.75,4,1,16,0.20
2013-4-1,52,42,32,44,35,18,98,76,53,29.98,29.76,10,4,25,0.02
2013-4-2,39,32,27,22,18,16,67,57,45,30.19,29.98,8,3,22,0.00
2013-4-3,41,32,26,22,18,13,70,56,39,30.40,30.19,9,3,22,0.00
2013-4-4,43,33,23,25,16,12,65,50,37,30.42,30.09,4,0,12,0.00
2013-4-5,58,44,33,35,28,20,89,57,40,30.10,29.86,8,3,21,0.00
2013-4-6,49,39,29,29,23,20,72,54,37,30.32,30.06,5,1,18,0.00
2013-4-7,64,50,36,46,36,23,72,60,50,30.27,29.99,4,2,18,0.00
2013-4-8,75,64,53,53,48,44,73,57,43,30.07,29.94,3,1,11,0.00
2013-4-9,79,69,60,60,54,49,70,60,48,30.07,29.89,6,2,15,0.00
2013-4-10,85,74,65,63,58,53,68,57,45,29.93,29.76,8,3,17,0.00
2013-4-11,79,66,51,62,57,49,95,73,55,29.87,29.72,8,2,22,0.00
2013-4-12,60,50,45,60,50,43,99,98,92,29.77,29.60,9,4,23,0.53
2013-4-13,61,51,42,43,38,34,91,62,44,29.98,29.77,8,3,26,0.00
2013-4-14,60,50,40,41,36,33,78,61,47,30.15,29.98,5,2,16,0.00
2013-4-15,58,53,48,51,46,39,86,78,59,30.27,30.14,4,2,16,0.00
2013-4-16,71,58,49,61,54,46,95,85,68,30.29,30.11,5,2,19,0.00
2013-4-17,64,59,56,60,55,52,100,89,77,30.22,30.11,4,1,12,0.07
2013-4-18,69,58,53,66,56,52,100,93,76,30.22,29.98,5,2,15,0.16
2013-4-19,68,60,46,64,57,41,97,91,82,29.99,29.59,9,4,25,0.57
2013-4-20,52,44,36,41,32,26,82,63,47,30.36,29.73,10,5,26,0.01
2013-4-21,49,39,30,34,26,20,70,59,48,30.60,30.36,3,1,13,0.00
2013-4-22,52,42,34,37,32,27,85,70,52,30.59,30.41,5,1,20,0.00
2013-4-23,53,43,35,44,38,30,91,82,67,30.43,30.13,3,1,15,0.00
2013-4-24,72,55,44,58,49,39,96,82,58,30.14,29.79,11,2,25,0.12
2013-4-25,57,46,37,42,34,31,83,64,43,30.33,29.99,11,3,27,0.00
2013-4-26,58,49,41,37,33,31,75,55,39,30.47,30.32,4,1,11,0.00
2013-4-27,66,55,45,46,38,31,63,53,43,30.43,30.28,3,1,14,0.00
2013-4-28,59,52,49,47,42,37,91,70,54,30.28,30.13,4,1,18,0.09
2013-4-29,54,50,47,54,49,45,99,97,84,30.14,30.06,3,1,15,0.36
2013-4-30,53,51,49,53,51,49,99,99,99,30.31,30.10,3,1,13,0.40
2013-5-1,66,54,44,49,42,37,99,66,41,30.42,30.30,4,1,17,0.01
2013-5-2,66,53,42,50,44,39,93,75,50,30.43,30.32,4,1,15,0.00
2013-5-3,63,53,43,49,44,38,92,72,51,30.39,30.29,5,1,20,0.00
2013-5-4,64,51,39,48,42,37,96,75,51,30.33,30.20,4,1,16,0.00
2013-5-5,61,48,38,47,41,37,95,77,55,30.23,30.15,4,1,20,0.00
2013-5-6,55,48,42,54,47,40,100,95,86,30.19,30.09,5,2,18,0.02
2013-5-7,58,55,52,58,54,51,100,99,98,30.10,29.94,6,2,25,1.97
2013-5-8,64,55,50,58,54,49,100,96,74,30.01,29.92,3,0,14,0.11
2013-5-9,68,57,48,60,54,47,99,90,70,30.02,29.91,4,1,10,0.00
2013-5-10,79,64,56,63,57,52,98,79,54,30.02,29.85,6,0,16,0.84
2013-5-11,67,60,56,65,59,52,100,94,76,29.86,29.72,5,1,13,0.21
2013-5-12,56,50,43,52,39,30,88,65,46,30.01,29.74,8,4,24,0.00
2013-5-13,52,44,39,34,30,27,71,58,42,30.18,30.01,7,2,20,0.00
2013-5-14,57,46,34,41,33,26,75,62,47,30.22,30.07,3,0,15,0.00
2013-5-15,79,61,48,67,52,37,80,71,61,30.07,29.72,3,1,12,0.00
2013-5-16,74,68,62,65,60,56,93,76,63,29.93,29.75,6,1,14,0.00
2013-5-17,76,66,55,62,55,48,94,69,49,30.13,29.92,2,0,12,0.00
2013-5-18,64,58,53,56,53,50,98,86,61,30.21,30.12,2,1,12,0.01
2013-5-19,64,58,54,64,58,53,100,99,98,30.21,30.10,2,0,9,0.03
2013-5-20,76,67,61,70,65,61,100,93,78,30.13,29.98,2,0,9,0.00
2013-5-21,82,71,63,74,68,62,100,90,72,29.98,29.85,1,0,7,0.00
2013-5-22,85,71,62,74,67,61,99,88,60,29.92,29.80,6,0,17,0.31
2013-5-23,73,64,61,69,63,60,99,96,82,29.87,29.72,2,0,6,0.19
2013-5-24,61,45,42,60,32,-100,99,79,73,30.15,29.73,7,-92,28,0.00
2013-5-25,59,35,40,43,-8,-100,85,40,50,30.18,30.10,7,-335,24,0.00
2013-5-26,65,53,42,46,39,35,78,61,45,30.25,30.15,5,1,18,0.00
2013-5-27,62,56,49,49,44,35,82,63,52,30.29,30.18,1,0,7,0.00
2013-5-28,72,62,53,65,56,46,94,83,69,30.21,30.08,3,0,9,0.01
2013-5-29,83,72,62,71,65,61,97,81,56,30.12,30.06,4,1,14,0.00
2013-5-30,86,76,66,73,67,62,90,76,58,30.17,30.08,1,0,8,0.00
2013-5-31,84,75,66,71,66,62,90,74,54,30.12,30.00,2,0,8,0.00
2013-6-1,85,75,66,73,67,63,89,78,62,30.01,29.88,1,0,12,0.00
2013-6-2,76,69,65,72,66,63,98,91,80,29.89,29.81,1,0,7,0.02
2013-6-3,72,66,58,68,62,53,99,88,73,29.96,29.83,3,0,11,0.20
2013-6-4,70,59,48,56,49,40,84,68,54,30.14,29.95,2,0,10,0.00
2013-6-5,73,64,57,62,54,48,81,72,61,30.18,30.04,2,0,11,0.00
2013-6-6,64,60,58,61,56,50,99,89,71,30.06,29.86,3,1,20,0.85
2013-6-7,64,62,59,64,62,58,100,99,98,29.87,29.63,3,1,19,0.54
2013-6-8,61,61,61,61,61,61,99,99,99,29.73,29.72,2,1,8,0.00
2013-6-10,73,68,64,72,68,64,100,99,96,29.98,29.76,3,0,11,0.65
2013-6-11,72,66,60,68,64,60,100,93,83,29.85,29.77,5,1,16,0.00
2013-6-12,80,71,63,71,66,61,96,86,70,29.88,29.78,3,0,14,0.00
2013-6-13,75,67,61,69,64,56,99,91,80,29.81,29.45,7,2,26,0.49
2013-6-14,72,63,56,60,56,51,92,77,58,29.99,29.60,4,1,16,0.00
2013-6-15,74,66,57,64,57,49,92,74,54,30.08,29.98,3,0,11,0.00
2013-6-16,75,68,64,68,59,49,95,75,57,30.03,29.88,3,0,12,0.06
2013-6-17,79,70,64,72,66,61,91,85,72,29.95,29.88,2,0,10,0.00
2013-6-18,72,69,66,69,66,64,97,93,82,29.91,29.77,1,0,6,0.02
2013-6-22,74,74,74,68,68,68,83,83,83,30.25,30.25,0,0,0,0.00
2013-6-24,83,74,68,74,70,66,97,87,68,30.12,30.02,1,0,7,0.13
2013-6-25,80,69,63,74,67,61,97,94,74,30.03,29.88,7,0,21,0.05
2013-6-26,82,70,63,75,66,61,95,88,77,29.92,29.81,2,0,9,0.00
2013-6-27,79,71,67,74,69,66,97,92,83,29.82,29.59,3,1,15,0.02
2013-6-28,81,71,65,73,67,62,96,87,69,29.61,29.47,3,0,12,0.01
2013-6-29,81,70,63,68,64,59,97,81,59,29.70,29.50,2,0,9,0.07
2013-6-30,82,72,64,76,69,63,97,90,76,29.85,29.69,2,0,10,0.12
2013-7-1,76,71,67,73,69,66,99,95,86,29.97,29.82,1,0,10,0.04
2013-7-2,76,71,68,73,70,68,99,95,87,30.15,29.97,1,0,12,0.03
2013-7-3,78,71,68,75,70,68,100,97,89,30.22,30.13,1,0,13,0.05
2013-7-4,82,75,69,76,72,69,99,91,78,30.24,30.15,1,0,9,0.00
2013-7-5,83,75,69,76,72,68,99,90,77,30.20,30.11,1,0,7,0.00
2013-7-6,87,76,69,77,72,68,97,87,68,30.17,30.05,1,0,9,0.00
2013-7-7,85,72,65,77,69,64,99,90,74,30.09,29.98,7,0,21,0.55
2013-7-8,79,69,65,72,67,64,99,94,74,30.11,30.03,2,0,10,0.07
2013-7-9,78,72,68,74,69,66,98,93,87,30.10,30.00,1,0,6,0.04
2013-7-10,80,73,69,75,70,68,97,93,77,30.00,29.84,3,0,7,0.02
2013-7-11,78,71,67,71,67,61,98,86,73,29.92,29.83,3,0,14,0.00
2013-7-12,70,65,61,66,63,60,98,93,72,30.05,29.91,3,1,18,0.59
2013-7-13,77,70,64,73,68,64,99,95,83,30.27,30.04,1,0,14,0.07
2013-7-14,84,75,70,76,72,69,99,90,74,30.34,30.27,2,0,8,0.00
2013-7-15,87,77,68,77,72,67,98,86,66,30.30,30.19,2,0,8,0.00
2013-7-16,87,80,75,76,72,68,86,76,60,30.24,30.17,3,0,13,0.00
2013-7-17,90,81,75,76,71,68,88,73,56,30.21,30.08,3,0,9,0.00
2013-7-18,89,81,74,80,75,68,89,81,65,30.11,29.99,1,0,7,0.00
2013-7-19,89,79,71,80,74,67,95,85,71,30.00,29.84,7,0,20,0.00
2013-7-20,82,75,69,78,70,66,97,86,74,29.90,29.79,6,0,17,0.18
2013-7-21,80,73,68,74,69,65,96,87,79,29.94,29.87,1,0,7,0.01
2013-7-22,82,73,67,75,70,67,98,93,76,29.93,29.74,3,0,9,0.65
2013-7-23,78,71,67,73,68,66,100,93,79,29.76,29.65,4,0,13,0.07
2013-7-24,75,69,62,67,63,55,93,82,66,29.93,29.68,4,1,11,0.00
2013-7-25,72,63,54,62,56,49,94,79,61,30.06,29.91,3,1,14,0.00
2013-7-26,77,67,60,65,60,58,95,81,58,30.11,30.03,3,0,8,0.00
2013-7-27,76,68,64,71,65,59,98,91,77,30.06,29.91,2,0,11,0.23
2013-7-28,78,68,61,70,66,59,99,94,73,30.00,29.88,5,0,16,0.88
2013-7-29,73,64,57,63,58,54,97,81,64,30.18,29.99,3,0,10,0.00
2013-7-30,74,65,59,64,58,55,87,80,65,30.24,30.15,2,0,7,0.00
2013-7-31,75,68,63,69,64,59,98,87,77,30.16,30.00,0,0,6,0.04
2013-8-1,74,68,63,72,66,63,99,96,88,30.00,29.82,2,0,9,0.24
2013-8-2,77,69,61,68,63,60,98,84,64,29.97,29.87,4,0,13,0.01
2013-8-3,68,65,62,66,62,60,98,92,78,29.96,29.92,2,0,6,0.12
2013-8-4,72,65,57,62,58,53,99,81,60,30.04,29.93,5,1,13,0.01
2013-8-5,74,65,58,61,56,53,86,74,58,30.11,30.02,2,0,8,0.00
2013-8-6,70,64,60,68,62,56,99,92,75,30.07,30.00,3,0,13,0.72
2013-8-7,78,68,64,74,67,63,100,97,86,30.07,29.99,2,0,8,0.59
2013-8-8,76,70,66,74,70,66,100,98,92,30.03,29.96,2,0,7,0.14
2013-8-9,77,72,69,75,71,68,100,98,91,29.97,29.86,3,0,13,0.49
2013-8-10,77,69,65,69,66,62,99,89,67,30.09,29.95,2,0,6,0.00
2013-8-11,81,71,66,72,66,61,95,84,71,30.11,30.00,2,0,8,0.00
2013-8-12,80,72,67,71,68,66,100,88,71,30.02,29.91,1,0,7,0.02
2013-8-13,77,69,64,72,66,58,99,91,80,29.91,29.74,4,0,13,0.63
2013-8-14,67,59,51,58,52,47,87,78,66,30.12,29.83,5,1,15,0.00
2013-8-15,70,61,54,59,52,47,85,73,60,30.21,30.11,1,0,6,0.00
2013-8-16,73,64,56,60,55,51,88,75,56,30.21,30.14,0,0,1,0.00
2013-8-17,74,65,57,62,58,53,89,77,63,30.28,30.20,0,0,0,0.00
2013-8-18,65,61,58,62,58,56,97,92,78,30.26,30.18,0,0,0,0.09
2013-8-19,70,63,57,68,62,56,98,96,91,30.19,30.09,0,0,0,0.00
2013-8-20,78,70,62,70,65,62,99,87,67,30.18,30.10,0,0,0,0.00
2013-8-21,82,73,67,75,69,63,98,89,76,30.19,30.05,0,0,0,0.00
2013-8-22,79,71,64,72,67,63,98,87,77,30.08,29.93,0,0,0,0.00
2013-8-23,69,66,62,66,64,60,99,91,84,30.14,29.94,0,0,0,0.12
2013-8-24,75,66,59,64,58,55,98,78,57,30.34,30.14,0,0,2,0.00
2013-8-25,76,66,60,66,61,55,98,83,64,30.41,30.26,0,0,0,0.00
2013-8-26,79,69,60,69,63,57,94,83,67,30.28,29.99,0,0,0,0.00
2013-8-27,82,73,68,74,69,64,95,87,71,30.00,29.88,0,0,0,0.01
2013-8-28,71,69,68,70,68,67,99,97,93,29.92,29.82,0,0,0,0.11
2013-8-29,78,70,65,72,68,65,100,92,77,30.02,29.84,0,0,2,0.01
2013-8-30,81,71,65,73,69,65,99,91,73,30.02,29.87,0,0,2,0.01
2013-8-31,82,73,67,75,70,66,99,91,74,29.89,29.78,0,0,1,0.00
2013-9-1,84,73,67,76,70,65,99,90,71,29.84,29.76,0,0,1,0.06
2013-9-2,82,73,67,75,70,66,99,90,73,29.81,29.71,0,0,2,0.08
2013-9-3,75,68,60,68,62,54,95,81,60,29.96,29.73,0,0,1,0.00
2013-9-4,75,64,54,60,56,52,92,76,54,30.09,29.95,0,0,0,0.00
2013-9-5,74,65,59,64,57,48,90,75,56,30.14,30.02,0,0,0,0.00
2013-9-6,69,59,51,54,49,44,82,69,54,30.26,30.14,0,0,0,0.00
2013-9-7,74,63,54,63,56,46,86,77,63,30.16,29.95,0,0,1,0.00
2013-9-8,77,68,61,68,61,55,94,80,70,30.06,29.91,0,0,1,0.00
2013-9-9,71,62,54,64,55,46,94,79,67,30.20,30.06,0,0,1,0.00
2013-9-10,85,73,64,76,69,64,99,89,72,30.19,30.09,0,0,1,0.00
2013-9-11,87,78,71,78,73,70,95,86,70,30.15,29.99,0,0,1,0.00
2013-9-12,85,73,66,75,69,61,95,86,61,29.99,29.73,0,0,3,0.00
2013-9-13,66,62,59,63,60,57,95,91,85,29.75,29.70,0,0,0,0.00
2013-12-4,53,48,46,47,45,43,96,87,74,30.09,30.02,6,2,0,0.00
2013-12-5,60,52,48,59,48,-100,99,97,92,30.07,29.92,5,1,0,0.01
2013-12-6,58,38,32,58,32,-100,99,95,84,30.16,29.88,13,2,0,0.20
2013-12-7,32,29,23,31,26,18,97,89,77,30.56,30.15,10,2,0,0.00
2013-12-8,26,21,19,25,18,15,95,88,78,30.59,30.36,5,1,0,0.00
2013-12-9,36,30,26,35,29,25,97,96,87,30.35,30.07,11,1,0,0.22
2013-12-10,32,27,22,29,24,15,96,86,70,30.22,30.00,14,3,0,0.00
2013-12-11,29,24,19,19,15,13,78,70,60,30.41,30.21,6,2,0,0.01
2013-12-12,28,20,15,20,9,5,86,66,49,30.37,30.18,11,3,0,0.00
2013-12-13,34,26,18,20,14,9,67,61,56,30.28,30.16,13,2,0,0.03
2013-12-14,32,29,26,31,25,19,96,86,57,30.28,29.69,8,1,0,0.00
2013-12-15,33,29,26,32,27,20,97,90,77,29.87,29.59,11,4,0,0.24
2013-12-16,28,25,21,24,20,15,92,82,78,30.14,29.87,8,2,0,0.00
2013-12-17,33,28,24,31,26,22,95,92,84,30.11,29.90,8,1,0,0.02
2013-12-18,30,27,24,26,21,18,93,79,74,30.16,29.95,12,3,0,0.00
2013-12-19,47,38,25,33,27,20,80,65,54,30.15,30.05,5,1,0,0.31
2013-12-20,49,46,43,37,34,30,67,62,52,30.07,29.92,3,1,5,0.02
2013-12-21,60,52,45,57,46,37,92,80,66,29.95,29.82,5,1,12,0.00
2013-12-22,63,58,55,61,57,54,98,96,92,29.92,29.73,7,3,13,0.32
2013-12-23,55,45,29,55,43,24,99,91,78,30.15,29.82,10,3,20,0.46
2013-12-24,31,24,15,24,17,7,91,75,59,30.40,30.11,9,3,22,0.00
2013-12-25,24,18,11,14,10,6,83,73,63,30.53,30.33,8,1,14,0.00
2013-12-26,36,27,20,27,19,13,83,71,59,30.33,30.20,14,1,17,0.00
2013-12-27,44,34,26,24,20,18,76,59,40,30.36,30.27,4,1,11,0.00
2013-12-28,51,42,33,33,26,22,63,54,46,30.28,30.05,5,1,9,0.00
2013-12-29,47,41,38,40,36,26,97,85,43,30.06,29.49,7,2,11,1.04
2013-12-30,40,32,23,38,28,17,94,84,77,30.11,29.75,7,3,15,0.00
2013-12-31,32,26,22,26,19,15,86,76,62,30.27,30.05,10,2,19,0.00
2014-1-1,41,29,22,28,21,15,84,73,59,30.36,30.09,5,1,0,0.00
2014-1-2,31,26,21,26,25,19,95,93,82,30.08,29.59,7,2,0,0.00